^^
Saratoga-Weather Station Historical Data
Daily Summary for February 15, 2018 Units:  English    Metric   Both
Daily Weekly Monthly Yearly Custom
  High: Low: Average:
Temperature: 49.8 °F 39.2 °F 45.1 °F
Dew Point: 48.2 °F 35.1 °F 43.4 °F
Humidity: 96% 85% 94%
Wind Speed: 6.6mph 0.0mph 2.3mph
Wind Gust: 10.4mph - -
Wind- - SSE
Pressure: 29.95 in 29.56 in -
Precipitation: 0.07 in    
Historical Graphs
 
 
Tabular Data for February 15, 2018
Time Temperature Dew Point Pressure Wind Wind Speed Wind Gust Humidity Rainfall Rate (Hourly) solar
00:01 39.2 °F 35.1 °F 29.95 in SSE 1.5 mph 4.0 mph 85% 0.00 in 0.0 W/m2
00:06 39.2 °F 35.4 °F 29.94 in SE 1.8 mph 3.5 mph 86% 0.00 in 0.0 W/m2
00:11 39.3 °F 35.5 °F 29.95 in South 2.0 mph 3.5 mph 86% 0.00 in 0.0 W/m2
00:16 39.4 °F 35.6 °F 29.94 in SSE 2.1 mph 3.5 mph 86% 0.00 in 0.0 W/m2
00:21 39.5 °F 35.7 °F 29.94 in SE 2.3 mph 4.0 mph 86% 0.00 in 0.0 W/m2
00:26 39.6 °F 35.8 °F 29.94 in SSE 2.5 mph 3.5 mph 86% 0.00 in 0.0 W/m2
00:31 39.7 °F 35.9 °F 29.94 in SSE 2.3 mph 3.5 mph 86% 0.00 in 0.0 W/m2
00:36 39.8 °F 36.0 °F 29.93 in SE 2.1 mph 3.5 mph 86% 0.00 in 0.0 W/m2
00:41 39.8 °F 36.0 °F 29.93 in SSE 2.1 mph 3.5 mph 86% 0.00 in 0.0 W/m2
00:46 39.9 °F 36.1 °F 29.93 in SSE 1.8 mph 3.5 mph 86% 0.00 in 0.0 W/m2
00:51 40.0 °F 36.4 °F 29.93 in SSE 1.5 mph 2.3 mph 87% 0.00 in 0.0 W/m2
00:56 40.0 °F 36.4 °F 29.92 in SSE 2.1 mph 3.5 mph 87% 0.00 in 0.0 W/m2
01:01 40.0 °F 36.2 °F 29.92 in SSE 1.9 mph 3.5 mph 86% 0.00 in 0.0 W/m2
01:06 40.0 °F 36.2 °F 29.92 in SSE 0.7 mph 2.0 mph 86% 0.00 in 0.0 W/m2
01:11 40.1 °F 36.2 °F 29.92 in SSE 0.8 mph 3.5 mph 86% 0.00 in 0.0 W/m2
01:16 40.1 °F 36.2 °F 29.92 in SSE 0.6 mph 2.3 mph 86% 0.00 in 0.0 W/m2
01:21 40.2 °F 36.3 °F 29.92 in SSE 0.3 mph 1.0 mph 86% 0.00 in 0.0 W/m2
01:26 40.2 °F 36.3 °F 29.92 in SSE 0.6 mph 1.2 mph 86% 0.00 in 0.0 W/m2
01:31 40.2 °F 36.3 °F 29.92 in SSE 0.7 mph 1.2 mph 86% 0.00 in 0.0 W/m2
01:36 40.3 °F 36.4 °F 29.92 in SSE 0.3 mph 1.2 mph 86% 0.00 in 0.0 W/m2
01:41 40.3 °F 36.4 °F 29.92 in SSE 1.2 mph 2.3 mph 86% 0.00 in 0.0 W/m2
01:46 40.3 °F 36.7 °F 29.92 in South 1.9 mph 3.5 mph 87% 0.00 in 0.0 W/m2
01:51 40.3 °F 36.7 °F 29.92 in South 1.4 mph 2.3 mph 87% 0.00 in 0.0 W/m2
01:56 40.3 °F 36.7 °F 29.92 in SE 2.6 mph 3.5 mph 87% 0.00 in 0.0 W/m2
02:01 40.4 °F 36.8 °F 29.91 in SE 2.8 mph 3.5 mph 87% 0.00 in 0.0 W/m2
02:06 40.4 °F 37.1 °F 29.91 in SE 2.2 mph 3.5 mph 88% 0.00 in 0.0 W/m2
02:11 40.4 °F 37.4 °F 29.91 in South 3.3 mph 4.6 mph 89% 0.00 in 0.0 W/m2
02:16 40.5 °F 37.5 °F 29.90 in SSE 4.4 mph 5.0 mph 89% 0.00 in 0.0 W/m2
02:21 40.5 °F 37.8 °F 29.90 in SSE 2.5 mph 4.0 mph 90% 0.00 in 0.0 W/m2
02:26 40.5 °F 37.8 °F 29.90 in SE 1.8 mph 2.3 mph 90% 0.00 in 0.0 W/m2
02:31 40.5 °F 37.8 °F 29.90 in South 1.6 mph 3.5 mph 90% 0.01 in 0.0 W/m2
02:36 40.5 °F 38.1 °F 29.89 in SE 2.6 mph 4.0 mph 91% 0.01 in 0.0 W/m2
02:41 40.5 °F 38.1 °F 29.89 in SSE 1.6 mph 2.3 mph 91% 0.01 in 0.0 W/m2
02:46 40.5 °F 38.1 °F 29.89 in SSE 1.9 mph 2.3 mph 91% 0.01 in 0.0 W/m2
02:56 40.5 °F 38.4 °F 29.88 in Calm     92% 0.02 in 0.0 W/m2
03:02 40.6 °F 38.5 °F 29.88 in SE 1.7 mph 2.0 mph 92% 0.03 in 0.0 W/m2
03:07 40.6 °F 38.5 °F 29.89 in South 1.1 mph 2.3 mph 92% 0.03 in 0.0 W/m2
03:12 40.7 °F 38.6 °F 29.88 in Calm     92% 0.04 in 0.0 W/m2
03:17 40.7 °F 38.6 °F 29.88 in Calm     92% 0.04 in 0.0 W/m2
03:22 40.7 °F 38.6 °F 29.87 in SSE 1.0 mph 2.3 mph 92% 0.05 in 0.0 W/m2
03:27 40.7 °F 38.6 °F 29.87 in SSE 1.1 mph 2.3 mph 92% 0.06 in 0.0 W/m2
03:32 40.7 °F 38.6 °F 29.86 in SSE 2.6 mph 3.5 mph 92% 0.05 in 0.0 W/m2
03:37 40.8 °F 38.9 °F 29.86 in SSE 3.2 mph 3.5 mph 93% 0.05 in 0.0 W/m2
03:42 40.8 °F 38.9 °F 29.86 in SE 2.7 mph 3.5 mph 93% 0.05 in 0.0 W/m2
03:47 40.9 °F 39.0 °F 29.85 in SE 0.1 mph 2.0 mph 93% 0.05 in 0.0 W/m2
03:52 40.9 °F 39.0 °F 29.85 in SE 1.7 mph 3.5 mph 93% 0.04 in 0.0 W/m2
03:57 40.9 °F 39.0 °F 29.84 in SSE 2.3 mph 3.5 mph 93% 0.04 in 0.0 W/m2
04:02 40.9 °F 39.0 °F 29.85 in SSE 0.2 mph 1.2 mph 93% 0.03 in 0.0 W/m2
04:07 41.0 °F 39.1 °F 29.85 in SSE 1.6 mph 3.5 mph 93% 0.03 in 0.0 W/m2
04:12 41.0 °F 39.1 °F 29.85 in South 1.9 mph 3.5 mph 93% 0.02 in 0.0 W/m2
04:17 41.0 °F 39.4 °F 29.85 in SSE 1.4 mph 2.3 mph 94% 0.02 in 0.0 W/m2
04:22 41.0 °F 39.4 °F 29.84 in SSE 1.5 mph 3.5 mph 94% 0.01 in 0.0 W/m2
04:27 41.0 °F 39.4 °F 29.84 in South 1.2 mph 6.0 mph 94% 0.00 in 0.0 W/m2
04:32 41.0 °F 39.4 °F 29.84 in SSE 1.5 mph 3.5 mph 94% 0.00 in 0.0 W/m2
04:37 41.1 °F 39.5 °F 29.84 in SSE 1.9 mph 3.5 mph 94% 0.00 in 0.0 W/m2
04:42 41.0 °F 39.4 °F 29.84 in Calm     94% 0.00 in 0.0 W/m2
04:47 41.0 °F 39.4 °F 29.84 in SSE 1.3 mph 3.5 mph 94% 0.00 in 0.0 W/m2
04:52 41.0 °F 39.4 °F 29.84 in South 1.5 mph 2.3 mph 94% 0.00 in 0.0 W/m2
04:57 41.0 °F 39.4 °F 29.84 in SSE 4.4 mph 5.0 mph 94% 0.00 in 0.0 W/m2
05:02 40.9 °F 39.3 °F 29.84 in SSE 4.3 mph 6.9 mph 94% 0.00 in 0.0 W/m2
05:07 40.9 °F 39.3 °F 29.83 in SSE 2.8 mph 6.0 mph 94% 0.00 in 0.0 W/m2
05:12 40.9 °F 39.3 °F 29.83 in SSE 2.6 mph 5.0 mph 94% 0.00 in 0.0 W/m2
05:17 40.8 °F 39.2 °F 29.83 in South 1.3 mph 4.0 mph 94% 0.00 in 0.0 W/m2
05:22 40.8 °F 39.2 °F 29.83 in South 2.3 mph 6.9 mph 94% 0.00 in 0.0 W/m2
05:27 40.8 °F 39.2 °F 29.83 in SSW 2.0 mph 4.6 mph 94% 0.00 in 0.0 W/m2
05:32 40.8 °F 39.2 °F 29.83 in South 2.6 mph 5.0 mph 94% 0.00 in 0.0 W/m2
05:37 40.9 °F 39.6 °F 29.84 in SSW 3.6 mph 3.6 mph 95% 0.00 in 0.0 W/m2
05:42 40.9 °F 39.6 °F 29.84 in SW 3.0 mph 4.6 mph 95% 0.00 in 0.0 W/m2
05:47 41.0 °F 39.7 °F 29.83 in SSE 3.5 mph 5.8 mph 95% 0.00 in 0.0 W/m2
05:52 41.0 °F 39.7 °F 29.83 in SSW 2.4 mph 3.5 mph 95% 0.00 in 0.0 W/m2
05:57 41.0 °F 39.7 °F 29.84 in Calm   2.3 mph 95% 0.00 in 0.0 W/m2
06:02 41.1 °F 39.8 °F 29.83 in SSE 2.4 mph 4.6 mph 95% 0.00 in 0.0 W/m2
06:07 41.1 °F 39.8 °F 29.83 in SW 1.9 mph 3.5 mph 95% 0.00 in 0.0 W/m2
06:12 41.2 °F 39.9 °F 29.83 in SSW 3.8 mph 4.6 mph 95% 0.00 in 0.0 W/m2
06:17 41.2 °F 39.9 °F 29.83 in SSE 3.2 mph 4.6 mph 95% 0.00 in 0.0 W/m2
06:22 41.3 °F 40.0 °F 29.83 in SSW 1.9 mph 4.0 mph 95% 0.00 in 0.0 W/m2
06:27 41.3 °F 40.0 °F 29.83 in SSW 2.5 mph 4.0 mph 95% 0.00 in 0.0 W/m2
06:32 41.4 °F 40.1 °F 29.83 in South 1.8 mph 4.0 mph 95% 0.00 in 0.0 W/m2
06:37 41.4 °F 40.1 °F 29.83 in SW 1.9 mph 3.0 mph 95% 0.00 in 0.0 W/m2
06:42 41.4 °F 40.1 °F 29.82 in SSE 1.8 mph 3.5 mph 95% 0.00 in 0.0 W/m2
06:47 41.5 °F 40.2 °F 29.83 in SSE 1.9 mph 4.6 mph 95% 0.00 in 0.0 W/m2
06:52 41.5 °F 40.2 °F 29.83 in SSE 2.2 mph 3.5 mph 95% 0.00 in 0.0 W/m2
06:57 41.5 °F 40.2 °F 29.82 in SW 2.6 mph 3.5 mph 95% 0.00 in 0.0 W/m2
07:02 41.6 °F 40.3 °F 29.82 in SSE 2.5 mph 3.5 mph 95% 0.00 in 5.0 W/m2
07:07 41.6 °F 40.3 °F 29.82 in SSE 2.8 mph 6.9 mph 95% 0.00 in 11.0 W/m2
07:12 41.7 °F 40.4 °F 29.82 in South 3.3 mph 3.5 mph 95% 0.00 in 16.0 W/m2
07:18 41.7 °F 40.4 °F 29.82 in SE 3.1 mph 4.0 mph 95% 0.00 in 19.0 W/m2
07:23 41.8 °F 40.5 °F 29.83 in WSW 4.3 mph 8.1 mph 95% 0.00 in 25.0 W/m2
07:28 41.9 °F 40.6 °F 29.83 in SSW 4.9 mph 8.1 mph 95% 0.00 in 37.0 W/m2
07:33 41.9 °F 40.6 °F 29.83 in SSE 1.7 mph 3.5 mph 95% 0.00 in 37.0 W/m2
07:38 42.0 °F 40.7 °F 29.82 in SSW 1.6 mph 3.5 mph 95% 0.00 in 32.0 W/m2
07:43 42.0 °F 40.7 °F 29.82 in SSW 3.3 mph 4.6 mph 95% 0.00 in 39.0 W/m2
07:48 42.0 °F 40.7 °F 29.82 in SSE 1.1 mph 3.5 mph 95% 0.00 in 51.0 W/m2
07:53 42.1 °F 40.8 °F 29.82 in SSW 3.8 mph 6.0 mph 95% 0.00 in 49.0 W/m2
07:58 42.1 °F 40.8 °F 29.82 in SW 2.2 mph 3.5 mph 95% 0.00 in 33.0 W/m2
08:03 42.1 °F 40.8 °F 29.82 in SSE 1.7 mph 3.5 mph 95% 0.00 in 26.0 W/m2
08:08 42.1 °F 40.8 °F 29.82 in SSW 1.4 mph 4.0 mph 95% 0.00 in 37.0 W/m2
08:13 42.1 °F 40.8 °F 29.82 in SSE 2.3 mph 4.0 mph 95% 0.00 in 74.0 W/m2
08:18 42.2 °F 40.9 °F 29.82 in SSE 1.8 mph 3.0 mph 95% 0.00 in 86.0 W/m2
08:23 42.2 °F 41.1 °F 29.81 in SSE 2.2 mph 3.5 mph 96% 0.00 in 62.0 W/m2
08:28 42.3 °F 41.2 °F 29.81 in SE 3.0 mph 3.5 mph 96% 0.00 in 81.0 W/m2
08:33 42.5 °F 41.4 °F 29.81 in SE 2.4 mph 4.6 mph 96% 0.00 in 88.0 W/m2
08:38 42.6 °F 41.5 °F 29.81 in Calm   2.3 mph 96% 0.00 in 81.0 W/m2
08:43 42.7 °F 41.6 °F 29.81 in Calm     96% 0.00 in 100.0 W/m2
08:48 42.9 °F 41.8 °F 29.81 in Calm     96% 0.00 in 91.0 W/m2
08:53 43.1 °F 42.0 °F 29.82 in WSW 0.9 mph 2.0 mph 96% 0.00 in 91.0 W/m2
08:58 43.2 °F 42.1 °F 29.82 in SSW 2.9 mph 4.0 mph 96% 0.00 in 62.0 W/m2
09:03 43.3 °F 42.2 °F 29.81 in SSE 1.2 mph 2.3 mph 96% 0.00 in 65.0 W/m2
09:08 43.4 °F 42.3 °F 29.82 in SW 3.1 mph 4.0 mph 96% 0.00 in 79.0 W/m2
09:13 43.4 °F 42.3 °F 29.81 in SSE 2.8 mph 4.6 mph 96% 0.00 in 72.0 W/m2
09:18 43.5 °F 42.4 °F 29.81 in SSE 4.2 mph 8.1 mph 96% 0.00 in 70.0 W/m2
09:23 43.5 °F 42.4 °F 29.81 in SE 5.4 mph 8.1 mph 96% 0.00 in 91.0 W/m2
09:28 43.4 °F 42.3 °F 29.81 in SE 3.6 mph 4.6 mph 96% 0.00 in 105.0 W/m2
09:33 43.4 °F 42.3 °F 29.80 in SSE 6.6 mph 10.4 mph 96% 0.00 in 84.0 W/m2
09:38 43.5 °F 42.4 °F 29.80 in SSE 2.2 mph 5.8 mph 96% 0.00 in 104.0 W/m2
09:43 43.6 °F 42.5 °F 29.81 in SSE 1.7 mph 4.6 mph 96% 0.00 in 100.0 W/m2
09:48 43.6 °F 42.5 °F 29.80 in South 1.6 mph 6.0 mph 96% 0.00 in 102.0 W/m2
09:53 43.6 °F 42.5 °F 29.80 in South 3.8 mph 9.2 mph 96% 0.00 in 72.0 W/m2
09:58 43.7 °F 42.6 °F 29.80 in SE 4.0 mph 8.1 mph 96% 0.00 in 86.0 W/m2
10:03 43.7 °F 42.6 °F 29.80 in SSE 1.8 mph 4.6 mph 96% 0.00 in 90.0 W/m2
10:08 43.7 °F 42.6 °F 29.80 in SE 1.7 mph 4.6 mph 96% 0.00 in 105.0 W/m2
10:13 43.8 °F 42.7 °F 29.79 in SSE 1.4 mph 2.3 mph 96% 0.00 in 120.0 W/m2
10:18 43.9 °F 42.8 °F 29.78 in SSE 3.9 mph 5.0 mph 96% 0.00 in 125.0 W/m2
10:23 44.0 °F 42.9 °F 29.78 in SW 2.7 mph 3.5 mph 96% 0.00 in 107.0 W/m2
10:28 43.9 °F 42.8 °F 29.78 in SSW 3.7 mph 4.6 mph 96% 0.00 in 113.0 W/m2
10:34 44.0 °F 42.9 °F 29.78 in South 1.6 mph 3.5 mph 96% 0.00 in 109.0 W/m2
10:39 44.1 °F 43.0 °F 29.78 in SSW 1.8 mph 3.5 mph 96% 0.00 in 111.0 W/m2
10:44 44.2 °F 43.1 °F 29.78 in South 2.2 mph 4.6 mph 96% 0.00 in 123.0 W/m2
10:49 44.2 °F 43.1 °F 29.78 in SSW 4.3 mph 6.9 mph 96% 0.00 in 109.0 W/m2
10:54 44.3 °F 43.2 °F 29.77 in SSE 4.5 mph 7.0 mph 96% 0.00 in 125.0 W/m2
10:59 44.5 °F 43.4 °F 29.77 in SSW 3.4 mph 4.6 mph 96% 0.00 in 134.0 W/m2
11:04 44.5 °F 43.4 °F 29.76 in SSE 3.7 mph 4.6 mph 96% 0.00 in 137.0 W/m2
11:09 44.6 °F 43.5 °F 29.76 in SE 4.3 mph 5.8 mph 96% 0.00 in 156.0 W/m2
11:14 44.8 °F 43.7 °F 29.76 in South 2.7 mph 4.0 mph 96% 0.00 in 123.0 W/m2
11:19 44.9 °F 43.8 °F 29.76 in South 1.4 mph 3.5 mph 96% 0.00 in 100.0 W/m2
11:24 45.0 °F 43.9 °F 29.76 in SSE 4.7 mph 8.1 mph 96% 0.00 in 90.0 W/m2
11:29 45.0 °F 43.9 °F 29.76 in WSW 4.0 mph 6.0 mph 96% 0.00 in 97.0 W/m2
11:34 45.1 °F 43.8 °F 29.76 in SSW 3.7 mph 5.8 mph 95% 0.00 in 91.0 W/m2
11:39 45.1 °F 43.8 °F 29.76 in South 2.8 mph 4.6 mph 95% 0.00 in 102.0 W/m2
11:44 45.2 °F 43.9 °F 29.75 in SSW 2.6 mph 4.0 mph 95% 0.00 in 98.0 W/m2
11:49 45.3 °F 44.0 °F 29.75 in South 3.6 mph 4.6 mph 95% 0.00 in 49.0 W/m2
11:54 45.3 °F 44.0 °F 29.75 in SE 3.3 mph 5.0 mph 95% 0.00 in 58.0 W/m2
11:59 45.3 °F 44.0 °F 29.75 in ESE 5.1 mph 5.8 mph 95% 0.00 in 69.0 W/m2
12:04 45.3 °F 44.0 °F 29.74 in SSE 2.4 mph 4.6 mph 95% 0.00 in 95.0 W/m2
12:09 45.4 °F 44.1 °F 29.74 in SSE 4.0 mph 6.9 mph 95% 0.01 in 86.0 W/m2
12:14 45.4 °F 44.1 °F 29.74 in SSW 2.3 mph 3.5 mph 95% 0.01 in 77.0 W/m2
12:19 45.5 °F 44.2 °F 29.74 in South 4.6 mph 5.8 mph 95% 0.01 in 69.0 W/m2
12:24 45.5 °F 44.2 °F 29.74 in SE 3.6 mph 4.6 mph 95% 0.01 in 100.0 W/m2
12:29 45.5 °F 44.2 °F 29.74 in SE 3.3 mph 3.5 mph 95% 0.01 in 100.0 W/m2
12:34 45.6 °F 44.3 °F 29.73 in SE 3.2 mph 3.5 mph 95% 0.01 in 109.0 W/m2
12:39 45.7 °F 44.4 °F 29.73 in SE 2.2 mph 3.5 mph 95% 0.01 in 130.0 W/m2
12:44 45.9 °F 44.8 °F 29.73 in SSE 3.5 mph 9.2 mph 96% 0.01 in 134.0 W/m2
12:49 45.9 °F 44.5 °F 29.73 in SSW 5.1 mph 8.1 mph 95% 0.01 in 183.0 W/m2
12:54 45.9 °F 44.5 °F 29.72 in SSE 4.1 mph 6.9 mph 95% 0.01 in 274.0 W/m2
12:59 46.2 °F 45.1 °F 29.71 in SSE 3.7 mph 5.8 mph 96% 0.01 in 190.0 W/m2
13:04 46.5 °F 45.4 °F 29.71 in SSE 3.2 mph 6.0 mph 96% 0.01 in 181.0 W/m2
13:09 46.6 °F 45.5 °F 29.70 in South 3.9 mph 5.8 mph 96% 0.00 in 199.0 W/m2
13:14 46.7 °F 45.6 °F 29.70 in SE 3.9 mph 6.0 mph 96% 0.00 in 128.0 W/m2
13:19 46.8 °F 45.4 °F 29.70 in South 2.3 mph 3.5 mph 95% 0.00 in 109.0 W/m2
13:24 46.9 °F 45.5 °F 29.70 in SE 3.2 mph 4.6 mph 95% 0.00 in 86.0 W/m2
13:29 46.9 °F 45.5 °F 29.69 in SSE 4.2 mph 4.6 mph 95% 0.00 in 77.0 W/m2
13:35 46.8 °F 45.4 °F 29.69 in SE 3.7 mph 6.9 mph 95% 0.00 in 86.0 W/m2
13:40 46.8 °F 45.4 °F 29.69 in SSE 4.0 mph 6.9 mph 95% 0.00 in 93.0 W/m2
13:45 46.9 °F 45.5 °F 29.69 in SSE 2.7 mph 5.0 mph 95% 0.00 in 97.0 W/m2
13:50 47.0 °F 45.6 °F 29.69 in SSE 3.9 mph 5.0 mph 95% 0.00 in 84.0 W/m2
13:55 47.1 °F 45.7 °F 29.69 in SSE 4.2 mph 7.0 mph 95% 0.00 in 62.0 W/m2
14:00 47.1 °F 45.7 °F 29.69 in SSE 5.3 mph 8.1 mph 95% 0.00 in 84.0 W/m2
14:05 47.2 °F 45.8 °F 29.68 in South 3.0 mph 3.5 mph 95% 0.00 in 111.0 W/m2
14:10 47.3 °F 45.9 °F 29.68 in SE 3.5 mph 4.6 mph 95% 0.00 in 102.0 W/m2
14:15 47.5 °F 46.1 °F 29.68 in South 2.7 mph 4.0 mph 95% 0.00 in 105.0 W/m2
14:20 47.6 °F 46.2 °F 29.67 in SE 6.2 mph 8.1 mph 95% 0.00 in 116.0 W/m2
14:25 47.7 °F 46.3 °F 29.67 in SE 3.8 mph 6.9 mph 95% 0.00 in 132.0 W/m2
14:30 47.8 °F 46.4 °F 29.67 in SE 2.1 mph 3.5 mph 95% 0.00 in 127.0 W/m2
14:35 48.0 °F 46.6 °F 29.67 in South 4.0 mph 4.6 mph 95% 0.00 in 100.0 W/m2
14:40 48.1 °F 46.7 °F 29.67 in SE 2.1 mph 3.5 mph 95% 0.00 in 95.0 W/m2
14:45 48.2 °F 46.8 °F 29.66 in SSE 2.7 mph 4.6 mph 95% 0.00 in 88.0 W/m2
14:50 48.4 °F 47.0 °F 29.67 in South 3.9 mph 5.0 mph 95% 0.00 in 77.0 W/m2
14:55 48.5 °F 47.1 °F 29.67 in SSE 4.4 mph 5.8 mph 95% 0.00 in 76.0 W/m2
15:00 48.5 °F 47.1 °F 29.67 in SSE 3.9 mph 6.9 mph 95% 0.00 in 70.0 W/m2
15:05 48.6 °F 47.2 °F 29.67 in SE 4.3 mph 5.8 mph 95% 0.00 in 58.0 W/m2
15:10 48.7 °F 47.3 °F 29.67 in SSE 4.3 mph 6.0 mph 95% 0.00 in 65.0 W/m2
15:15 48.7 °F 47.3 °F 29.67 in SE 4.8 mph 6.9 mph 95% 0.00 in 63.0 W/m2
15:20 48.8 °F 47.2 °F 29.67 in SSE 3.4 mph 4.6 mph 94% 0.00 in 60.0 W/m2
15:25 48.8 °F 47.2 °F 29.68 in South 3.3 mph 5.8 mph 94% 0.00 in 49.0 W/m2
15:30 48.8 °F 47.2 °F 29.67 in SSE 4.4 mph 5.0 mph 94% 0.00 in 54.0 W/m2
15:35 48.8 °F 47.2 °F 29.67 in SSE 4.0 mph 6.9 mph 94% 0.00 in 51.0 W/m2
15:40 48.8 °F 47.2 °F 29.67 in SSE 3.6 mph 4.6 mph 94% 0.00 in 51.0 W/m2
15:45 48.8 °F 47.2 °F 29.67 in SSE 3.9 mph 4.0 mph 94% 0.00 in 46.0 W/m2
15:50 48.9 °F 47.2 °F 29.67 in SE 2.7 mph 4.0 mph 94% 0.00 in 44.0 W/m2
15:55 48.9 °F 47.2 °F 29.67 in SE 1.9 mph 3.5 mph 94% 0.00 in 42.0 W/m2
16:00 48.9 °F 47.2 °F 29.67 in SE 1.7 mph 3.5 mph 94% 0.00 in 40.0 W/m2
16:05 48.9 °F 47.2 °F 29.66 in SE 3.0 mph 4.0 mph 94% 0.00 in 46.0 W/m2
16:10 48.8 °F 47.2 °F 29.66 in SSE 3.7 mph 3.7 mph 94% 0.00 in 35.0 W/m2
16:15 48.8 °F 47.2 °F 29.66 in SSE 4.2 mph 6.9 mph 94% 0.00 in 26.0 W/m2
16:21 48.8 °F 47.2 °F 29.66 in SSE 3.3 mph 4.0 mph 94% 0.00 in 26.0 W/m2
16:26 48.8 °F 47.2 °F 29.66 in SE 2.2 mph 3.5 mph 94% 0.00 in 26.0 W/m2
16:31 48.8 °F 47.2 °F 29.65 in SE 2.5 mph 3.5 mph 94% 0.00 in 33.0 W/m2
16:36 48.8 °F 47.2 °F 29.65 in SE 1.0 mph 2.3 mph 94% 0.00 in 74.0 W/m2
16:41 48.8 °F 47.2 °F 29.65 in SSE 1.1 mph 2.3 mph 94% 0.00 in 79.0 W/m2
16:46 49.0 °F 47.3 °F 29.66 in South 1.9 mph 3.5 mph 94% 0.00 in 70.0 W/m2
16:51 49.2 °F 47.5 °F 29.66 in SE 2.2 mph 3.5 mph 94% 0.00 in 62.0 W/m2
16:56 49.3 °F 47.6 °F 29.66 in SSE 3.4 mph 4.0 mph 94% 0.00 in 47.0 W/m2
17:01 49.4 °F 47.7 °F 29.66 in SE 3.1 mph 4.0 mph 94% 0.00 in 35.0 W/m2
17:06 49.4 °F 47.5 °F 29.66 in SSE 3.2 mph 4.0 mph 93% 0.00 in 21.0 W/m2
17:11 49.4 °F 47.5 °F 29.66 in SSE 2.1 mph 3.5 mph 93% 0.00 in 12.0 W/m2
17:16 49.3 °F 47.4 °F 29.65 in SE 2.6 mph 3.5 mph 93% 0.00 in 9.0 W/m2
17:21 49.3 °F 47.4 °F 29.65 in SE 2.4 mph 3.5 mph 93% 0.00 in 0.0 W/m2
17:26 49.2 °F 47.3 °F 29.65 in SE 2.7 mph 3.5 mph 93% 0.00 in 0.0 W/m2
17:31 49.0 °F 47.1 °F 29.65 in SE 3.0 mph 3.5 mph 93% 0.00 in 0.0 W/m2
17:36 49.0 °F 47.1 °F 29.65 in SSE 2.1 mph 3.5 mph 93% 0.00 in 0.0 W/m2
17:41 48.9 °F 47.0 °F 29.65 in SE 1.6 mph 2.3 mph 93% 0.00 in 0.0 W/m2
17:46 48.8 °F 46.9 °F 29.65 in SE 1.5 mph 3.5 mph 93% 0.00 in 0.0 W/m2
17:51 48.7 °F 46.8 °F 29.66 in SSE 2.8 mph 4.0 mph 93% 0.00 in 0.0 W/m2
17:56 48.7 °F 46.8 °F 29.66 in SSE 1.4 mph 3.5 mph 93% 0.00 in 0.0 W/m2
18:01 48.6 °F 46.7 °F 29.66 in SSE 1.5 mph 2.3 mph 93% 0.00 in 0.0 W/m2
18:06 48.6 °F 46.7 °F 29.66 in SE 1.5 mph 3.5 mph 93% 0.00 in 0.0 W/m2
18:11 48.5 °F 46.6 °F 29.66 in SE 1.4 mph 2.3 mph 93% 0.00 in 0.0 W/m2
18:16 48.5 °F 46.6 °F 29.65 in SE 1.7 mph 2.3 mph 93% 0.00 in 0.0 W/m2
18:21 48.4 °F 46.5 °F 29.65 in SSE 2.9 mph 4.0 mph 93% 0.00 in 0.0 W/m2
18:26 48.3 °F 46.4 °F 29.65 in SSE 2.4 mph 3.5 mph 93% 0.00 in 0.0 W/m2
18:31 48.3 °F 46.4 °F 29.65 in SE 2.3 mph 3.5 mph 93% 0.00 in 0.0 W/m2
18:36 48.4 °F 46.8 °F 29.65 in SSE 1.8 mph 3.5 mph 94% 0.00 in 0.0 W/m2
18:41 48.4 °F 46.8 °F 29.65 in SSE 1.8 mph 2.3 mph 94% 0.00 in 0.0 W/m2
18:46 48.3 °F 46.7 °F 29.64 in SSE 3.3 mph 3.5 mph 94% 0.00 in 0.0 W/m2
18:51 48.3 °F 46.7 °F 29.64 in SE 3.2 mph 5.0 mph 94% 0.00 in 0.0 W/m2
18:56 48.3 °F 46.7 °F 29.64 in SE 2.8 mph 3.5 mph 94% 0.00 in 0.0 W/m2
19:02 48.3 °F 46.7 °F 29.63 in SE 2.5 mph 3.5 mph 94% 0.00 in 0.0 W/m2
19:07 48.2 °F 46.6 °F 29.64 in SSE 0.3 mph 2.3 mph 94% 0.00 in 0.0 W/m2
19:12 48.2 °F 46.6 °F 29.65 in Calm     94% 0.00 in 0.0 W/m2
19:17 48.3 °F 46.7 °F 29.64 in South 0.3 mph 1.2 mph 94% 0.00 in 0.0 W/m2
19:22 48.3 °F 46.7 °F 29.65 in Calm   1.2 mph 94% 0.00 in 0.0 W/m2
19:27 48.3 °F 46.7 °F 29.65 in Calm     94% 0.00 in 0.0 W/m2
19:32 48.3 °F 46.7 °F 29.65 in Calm     94% 0.00 in 0.0 W/m2
19:37 48.3 °F 46.7 °F 29.65 in Calm     94% 0.00 in 0.0 W/m2
19:42 48.3 °F 46.7 °F 29.65 in SE 2.1 mph 3.0 mph 94% 0.00 in 0.0 W/m2
19:47 48.4 °F 46.8 °F 29.65 in Calm   3.5 mph 94% 0.00 in 0.0 W/m2
19:52 48.4 °F 46.8 °F 29.65 in SE 1.4 mph 3.5 mph 94% 0.00 in 0.0 W/m2
19:57 48.4 °F 46.8 °F 29.65 in SE 2.0 mph 3.5 mph 94% 0.00 in 0.0 W/m2
20:02 48.5 °F 46.9 °F 29.64 in SE 2.9 mph 4.6 mph 94% 0.00 in 0.0 W/m2
20:07 48.5 °F 46.9 °F 29.64 in SSE 0.9 mph 2.3 mph 94% 0.00 in 0.0 W/m2
20:12 48.6 °F 47.0 °F 29.63 in Calm     94% 0.00 in 0.0 W/m2
20:17 48.5 °F 46.9 °F 29.63 in Calm     94% 0.00 in 0.0 W/m2
20:22 48.5 °F 46.9 °F 29.63 in Calm     94% 0.00 in 0.0 W/m2
20:27 48.5 °F 46.9 °F 29.62 in Calm     94% 0.00 in 0.0 W/m2
20:32 48.5 °F 46.9 °F 29.62 in Calm     94% 0.00 in 0.0 W/m2
20:37 48.6 °F 47.0 °F 29.62 in Calm     94% 0.00 in 0.0 W/m2
20:42 48.6 °F 47.0 °F 29.61 in Calm     94% 0.00 in 0.0 W/m2
20:47 48.6 °F 47.0 °F 29.61 in Calm     94% 0.00 in 0.0 W/m2
20:52 48.7 °F 47.3 °F 29.61 in Calm     95% 0.00 in 0.0 W/m2
20:57 48.7 °F 47.3 °F 29.62 in SSE 2.8 mph 4.6 mph 95% 0.00 in 0.0 W/m2
21:02 48.9 °F 47.5 °F 29.61 in SSE 3.5 mph 4.6 mph 95% 0.00 in 0.0 W/m2
21:07 49.0 °F 47.6 °F 29.61 in SE 2.2 mph 4.6 mph 95% 0.00 in 0.0 W/m2
21:12 49.1 °F 47.7 °F 29.61 in SSE 2.9 mph 3.5 mph 95% 0.00 in 0.0 W/m2
21:17 49.1 °F 47.4 °F 29.61 in SSE 0.2 mph 2.3 mph 94% 0.00 in 0.0 W/m2
21:22 49.2 °F 47.5 °F 29.61 in South 1.5 mph 2.3 mph 94% 0.00 in 0.0 W/m2
21:27 49.3 °F 47.9 °F 29.61 in South 0.9 mph 2.3 mph 95% 0.00 in 0.0 W/m2
21:32 49.4 °F 48.0 °F 29.61 in SE 3.1 mph 4.6 mph 95% 0.00 in 0.0 W/m2
21:37 49.5 °F 48.1 °F 29.61 in South 2.1 mph 3.5 mph 95% 0.00 in 0.0 W/m2
21:42 49.5 °F 48.1 °F 29.60 in SE 3.2 mph 8.1 mph 95% 0.00 in 0.0 W/m2
21:47 49.5 °F 48.1 °F 29.60 in SSE 3.9 mph 5.0 mph 95% 0.00 in 0.0 W/m2
21:52 49.5 °F 48.1 °F 29.60 in SSE 1.6 mph 3.5 mph 95% 0.00 in 0.0 W/m2
21:57 49.6 °F 48.2 °F 29.60 in SSE 2.4 mph 5.8 mph 95% 0.00 in 0.0 W/m2
22:02 49.6 °F 47.9 °F 29.60 in SSE 3.8 mph 6.9 mph 94% 0.00 in 0.0 W/m2
22:07 49.6 °F 47.9 °F 29.59 in SSW 2.8 mph 5.0 mph 94% 0.00 in 0.0 W/m2
22:12 49.6 °F 47.9 °F 29.59 in South 2.6 mph 3.5 mph 94% 0.00 in 0.0 W/m2
22:17 49.7 °F 48.0 °F 29.59 in South 2.1 mph 4.0 mph 94% 0.00 in 0.0 W/m2
22:22 49.7 °F 48.0 °F 29.58 in SE 0.7 mph 3.5 mph 94% 0.00 in 0.0 W/m2
22:27 49.7 °F 48.0 °F 29.58 in Calm     94% 0.00 in 0.0 W/m2
22:32 49.7 °F 48.0 °F 29.58 in Calm     94% 0.00 in 0.0 W/m2
22:37 49.7 °F 48.0 °F 29.58 in Calm     94% 0.00 in 0.0 W/m2
22:42 49.7 °F 48.0 °F 29.58 in Calm     94% 0.00 in 0.0 W/m2
22:47 49.7 °F 48.0 °F 29.58 in Calm     94% 0.00 in 0.0 W/m2
22:52 49.7 °F 48.0 °F 29.57 in Calm     94% 0.00 in 0.0 W/m2
22:57 49.8 °F 48.1 °F 29.56 in SE 2.1 mph 3.5 mph 94% 0.00 in 0.0 W/m2
23:02 49.8 °F 48.1 °F 29.56 in Calm     94% 0.00 in 0.0 W/m2
23:07 49.8 °F 48.1 °F 29.56 in Calm   1.0 mph 94% 0.00 in 0.0 W/m2
23:12 49.8 °F 48.1 °F 29.56 in SSE 2.7 mph 3.5 mph 94% 0.00 in 0.0 W/m2
23:18 49.8 °F 48.1 °F 29.56 in South 3.2 mph 4.6 mph 94% 0.00 in 0.0 W/m2
23:23 49.7 °F 48.0 °F 29.56 in SSE 3.0 mph 3.5 mph 94% 0.00 in 0.0 W/m2
23:28 49.7 °F 48.0 °F 29.56 in SSE 3.1 mph 5.0 mph 94% 0.00 in 0.0 W/m2
23:33 49.7 °F 48.0 °F 29.56 in SSE 3.7 mph 4.6 mph 94% 0.00 in 0.0 W/m2
23:38 49.7 °F 48.0 °F 29.56 in SE 3.6 mph 4.6 mph 94% 0.00 in 0.0 W/m2
23:43 49.7 °F 48.0 °F 29.56 in SE 3.8 mph 5.0 mph 94% 0.00 in 0.0 W/m2
23:48 49.6 °F 47.9 °F 29.56 in SSE 4.5 mph 6.9 mph 94% 0.00 in 0.0 W/m2
23:53 49.6 °F 47.9 °F 29.56 in SE 3.4 mph 3.5 mph 94% 0.00 in 0.0 W/m2
23:58 49.6 °F 47.9 °F 29.56 in SSE 4.9 mph 6.9 mph 94% 0.00 in 0.0 W/m2
Juneau County Weather
Compliments of Weather Underground - 3 mb